Time;durP1;ratioP1;P1;durP2;ratioP2;P2;SDS_P1;SDS_P2;PMS_P1;PMS_P2;Temp;Humidity;BMP_temperature;BMP_pressure;BME280_temperature;BME280_humidity;BME280_pressure;Samples;Min_cycle;Max_cycle;Signal;HPM_P1;HPM_P2
2022/09/16 00:00:42;;;;;;;1.05;0.70;;;15.60;86.80;;;;;;5061717;28;20361;-69
2022/09/16 00:03:08;;;;;;;1.98;0.75;;;15.60;86.90;;;;;;5058051;28;20041;-69
2022/09/16 00:05:39;;;;;;;0.95;0.45;;;15.60;86.90;;;;;;5061762;28;20028;-68
2022/09/16 00:08:05;;;;;;;0.55;0.45;;;15.60;86.80;;;;;;5071077;28;20031;-69
2022/09/16 00:10:31;;;;;;;0.55;0.40;;;15.60;86.60;;;;;;5068369;28;20376;-69
2022/09/16 00:12:56;;;;;;;2.83;0.85;;;15.60;86.60;;;;;;5063758;28;20468;-69
2022/09/16 00:15:22;;;;;;;3.28;0.80;;;15.60;87.00;;;;;;5065075;28;20029;-68
2022/09/16 00:17:48;;;;;;;5.65;0.82;;;15.60;86.90;;;;;;5063694;28;20029;-69
2022/09/16 00:20:13;;;;;;;1.63;0.63;;;15.60;87.10;;;;;;5072454;28;20032;-69
2022/09/16 00:22:39;;;;;;;3.17;0.82;;;15.60;86.90;;;;;;5061415;28;20036;-69
2022/09/16 00:25:05;;;;;;;5.50;1.17;;;15.60;87.30;;;;;;5072606;28;20028;-69
2022/09/16 00:27:31;;;;;;;4.05;0.95;;;15.60;87.40;;;;;;5066000;28;20107;-69
2022/09/16 00:29:56;;;;;;;4.40;0.82;;;15.60;87.20;;;;;;5073929;28;20533;-69
2022/09/16 00:32:23;;;;;;;3.88;0.77;;;15.70;86.80;;;;;;5076476;28;20371;-68
2022/09/16 00:34:49;;;;;;;3.70;0.75;;;15.70;86.50;;;;;;5071188;28;20063;-69
2022/09/16 00:37:15;;;;;;;2.47;0.65;;;15.70;86.20;;;;;;5066432;28;20024;-69
2022/09/16 00:39:41;;;;;;;1.88;0.60;;;15.70;86.10;;;;;;5064699;28;20416;-69
2022/09/16 00:42:10;;;;;;;4.22;1.13;;;15.60;85.90;;;;;;5071651;28;20060;-69
2022/09/16 00:44:56;;;;;;;5.78;1.65;;;15.60;86.00;;;;;;5060836;28;20029;-69
2022/09/16 00:47:52;;;;;;;2.63;0.60;;;15.70;86.00;;;;;;5054833;28;20548;-69
2022/09/16 00:50:42;;;;;;;2.53;0.93;;;15.60;85.80;;;;;;5073119;28;20365;-69
2022/09/16 00:53:14;;;;;;;0.55;0.55;;;15.60;86.00;;;;;;5059873;28;20502;-69
2022/09/16 00:55:41;;;;;;;5.43;0.95;;;15.60;85.90;;;;;;5061889;28;20115;-69
2022/09/16 00:58:17;;;;;;;8.90;1.15;;;15.60;86.10;;;;;;5066378;28;20040;-69
2022/09/16 01:00:43;;;;;;;5.07;1.25;;;15.50;86.30;;;;;;5053759;28;20393;-69
2022/09/16 01:03:09;;;;;;;1.73;1.00;;;15.50;86.20;;;;;;5061118;28;20046;-69
2022/09/16 01:05:37;;;;;;;9.48;0.95;;;15.50;86.20;;;;;;5059341;28;20048;-69
2022/09/16 01:08:03;;;;;;;5.40;1.23;;;15.60;86.40;;;;;;5065782;28;20370;-69
2022/09/16 01:10:30;;;;;;;2.38;0.90;;;15.50;86.30;;;;;;5066842;28;20377;-69
2022/09/16 01:13:27;;;;;;;5.70;1.55;;;15.50;86.20;;;;;;5072541;28;20024;-68
2022/09/16 01:16:15;;;;;;;5.93;1.02;;;15.50;86.60;;;;;;5069579;28;20025;-69
2022/09/16 01:19:18;;;;;;;7.55;0.80;;;15.50;86.60;;;;;;5071473;28;20055;-69
2022/09/16 01:22:03;;;;;;;4.77;1.50;;;15.40;86.70;;;;;;5052320;28;20036;-69
2022/09/16 01:24:47;;;;;;;4.75;1.00;;;15.50;87.00;;;;;;5061774;28;20295;-69
2022/09/16 01:27:36;;;;;;;6.47;1.30;;;15.50;87.40;;;;;;5074598;28;20108;-69
2022/09/16 01:30:11;;;;;;;3.78;0.80;;;15.60;87.60;;;;;;5073796;28;20034;-69
2022/09/16 01:32:42;;;;;;;4.32;1.08;;;15.60;87.00;;;;;;5070091;28;20056;-68
2022/09/16 01:35:42;;;;;;;14.80;1.75;;;15.60;86.20;;;;;;5058537;28;20578;-69
2022/09/16 01:38:42;;;;;;;12.77;1.73;;;15.60;86.50;;;;;;5058343;28;20115;-68
2022/09/16 01:41:32;;;;;;;3.00;0.80;;;15.60;86.20;;;;;;5082896;28;20036;-69
2022/09/16 01:44:28;;;;;;;5.63;0.98;;;15.60;85.80;;;;;;5065176;28;20037;-69
2022/09/16 01:47:07;;;;;;;5.88;1.33;;;15.60;85.70;;;;;;5052954;28;20040;-68
2022/09/16 01:49:49;;;;;;;7.20;0.80;;;15.60;85.70;;;;;;5072910;28;20403;-69
2022/09/16 01:52:39;;;;;;;3.20;1.08;;;15.60;85.70;;;;;;5069744;28;20060;-69
2022/09/16 01:55:14;;;;;;;2.78;0.80;;;15.60;85.70;;;;;;5061619;28;20024;-68
2022/09/16 01:58:17;;;;;;;9.60;1.25;;;15.50;85.70;;;;;;5068291;28;20029;-69
2022/09/16 02:00:45;;;;;;;1.95;0.88;;;15.50;86.30;;;;;;5026188;28;20099;-69
2022/09/16 02:03:20;;;;;;;10.60;1.42;;;15.50;85.80;;;;;;5063848;28;20072;-68
2022/09/16 02:05:59;;;;;;;5.88;1.00;;;15.50;86.00;;;;;;5051777;28;20070;-69
2022/09/16 02:08:42;;;;;;;1.75;0.60;;;15.50;86.00;;;;;;5080891;28;20044;-68
2022/09/16 02:11:11;;;;;;;;;;;15.50;85.90;;;;;;5083647;28;20032;-68
2022/09/16 02:13:44;;;;;;;4.30;0.80;;;15.50;85.60;;;;;;5066432;28;19954;-69
2022/09/16 02:16:15;;;;;;;2.75;0.75;;;15.40;85.60;;;;;;5076251;28;20027;-69
2022/09/16 02:18:44;;;;;;;4.55;1.10;;;15.40;86.00;;;;;;5059031;28;20992;-69
2022/09/16 02:21:14;;;;;;;5.85;0.95;;;15.40;86.00;;;;;;5070782;28;20025;-68
2022/09/16 02:23:45;;;;;;;3.22;0.90;;;15.30;86.10;;;;;;5068043;28;20055;-69
2022/09/16 02:26:16;;;;;;;9.50;1.10;;;15.40;86.10;;;;;;5065282;28;20029;-68
2022/09/16 02:28:45;;;;;;;3.63;1.25;;;15.30;85.90;;;;;;5059219;28;20434;-68
2022/09/16 02:31:13;;;;;;;1.95;0.60;;;15.40;86.10;;;;;;5070076;28;20036;-68
2022/09/16 02:33:45;;;;;;;4.57;0.90;;;15.30;85.90;;;;;;5074167;28;20035;-69
2022/09/16 02:36:15;;;;;;;6.60;1.08;;;15.30;86.20;;;;;;5073557;28;20037;-68
2022/09/16 02:38:44;;;;;;;5.70;1.80;;;15.30;86.10;;;;;;5064779;28;20052;-68
2022/09/16 02:41:13;;;;;;;8.10;1.15;;;15.30;86.20;;;;;;5068786;28;20037;-68
2022/09/16 02:43:41;;;;;;;3.65;0.75;;;15.30;86.00;;;;;;5053235;28;20055;-68
2022/09/16 02:46:34;;;;;;;12.77;2.10;;;15.30;85.80;;;;;;5059881;28;20020;-68
2022/09/16 02:49:39;;;;;;;2.15;0.95;;;15.30;85.90;;;;;;5068146;28;20025;-68
2022/09/16 02:52:33;;;;;;;0.57;0.50;;;15.30;85.60;;;;;;5068550;28;20590;-68
2022/09/16 02:55:05;;;;;;;1.17;0.63;;;15.20;85.60;;;;;;5063068;28;20036;-68
2022/09/16 02:57:33;;;;;;;1.48;0.63;;;15.20;85.70;;;;;;5058583;28;20122;-68
2022/09/16 02:59:59;;;;;;;0.20;0.20;;;15.20;85.80;;;;;;5070004;28;20523;-68
2022/09/16 03:02:25;;;;;;;3.40;0.50;;;15.10;86.10;;;;;;5059099;28;20488;-68
2022/09/16 03:04:50;;;;;;;1.60;0.57;;;15.10;86.30;;;;;;5057012;28;20503;-69
2022/09/16 03:07:17;;;;;;;5.07;1.23;;;15.00;86.40;;;;;;5071758;28;20048;-69
2022/09/16 03:09:44;;;;;;;7.88;0.98;;;15.00;86.70;;;;;;5070241;28;20111;-68
2022/09/16 03:12:28;;;;;;;5.60;0.82;;;15.00;86.80;;;;;;5063146;28;20075;-68
2022/09/16 03:15:07;;;;;;;5.10;1.20;;;14.90;86.70;;;;;;5066116;28;20186;-68
2022/09/16 03:17:40;;;;;;;8.73;1.15;;;14.90;86.90;;;;;;5064366;28;20063;-68
2022/09/16 03:20:28;;;;;;;7.15;1.30;;;14.90;87.00;;;;;;5071533;28;20025;-68
2022/09/16 03:23:09;;;;;;;7.75;1.58;;;15.00;87.00;;;;;;5051797;28;20057;-68
2022/09/16 03:25:43;;;;;;;9.70;2.15;;;15.00;86.90;;;;;;5050634;28;20033;-68
2022/09/16 03:28:26;;;;;;;9.88;1.52;;;15.00;86.80;;;;;;5063340;28;20040;-68
2022/09/16 03:31:07;;;;;;;9.27;1.60;;;15.00;86.80;;;;;;5063985;28;20025;-68
2022/09/16 03:33:39;;;;;;;4.40;1.30;;;15.00;86.80;;;;;;5067280;28;20417;-68
2022/09/16 03:36:07;;;;;;;8.20;1.30;;;15.10;86.50;;;;;;5051683;28;20460;-68
2022/09/16 03:38:35;;;;;;;5.88;1.17;;;15.10;86.20;;;;;;5070729;28;20053;-68
2022/09/16 03:41:03;;;;;;;6.65;1.05;;;15.10;86.00;;;;;;5074739;28;20059;-68
2022/09/16 03:43:28;;;;;;;3.92;1.10;;;15.00;86.00;;;;;;5075720;28;20047;-67
2022/09/16 03:45:54;;;;;;;7.55;1.50;;;15.00;85.80;;;;;;5087666;28;20024;-68
2022/09/16 03:48:23;;;;;;;6.10;1.25;;;15.00;85.80;;;;;;5073944;28;20039;-67
2022/09/16 03:50:48;;;;;;;8.57;1.00;;;15.00;85.80;;;;;;5068770;28;20021;-68
2022/09/16 03:53:14;;;;;;;6.18;1.17;;;15.00;85.80;;;;;;5066797;28;20043;-68
2022/09/16 03:55:40;;;;;;;8.35;1.05;;;15.00;85.60;;;;;;5074108;28;20451;-68
2022/09/16 03:58:05;;;;;;;13.30;1.13;;;15.00;85.50;;;;;;5062659;28;20384;-68
2022/09/16 04:00:31;;;;;;;6.63;1.17;;;15.00;85.40;;;;;;5067307;28;20107;-67
2022/09/16 04:02:59;;;;;;;6.82;1.02;;;15.00;85.30;;;;;;5065793;28;20040;-67
2022/09/16 04:05:26;;;;;;;5.22;0.85;;;14.90;85.40;;;;;;5067791;28;20121;-66
2022/09/16 04:07:51;;;;;;;8.63;1.50;;;15.00;85.40;;;;;;5066928;28;20035;-67
2022/09/16 04:10:18;;;;;;;8.63;1.38;;;15.00;85.50;;;;;;5060388;28;20021;-67
2022/09/16 04:12:44;;;;;;;4.35;1.10;;;15.00;85.40;;;;;;5075256;28;20037;-67
2022/09/16 04:15:10;;;;;;;4.35;1.08;;;15.00;85.50;;;;;;5074993;28;20017;-67
2022/09/16 04:17:37;;;;;;;14.73;1.70;;;15.10;84.80;;;;;;5072625;28;20146;-67
2022/09/16 04:20:03;;;;;;;3.47;1.35;;;15.00;84.50;;;;;;5070266;28;20020;-67
2022/09/16 04:22:30;;;;;;;10.98;1.73;;;15.00;84.50;;;;;;5073446;28;20033;-66
2022/09/16 04:24:56;;;;;;;12.10;1.92;;;15.00;84.70;;;;;;5073752;28;20029;-68
2022/09/16 04:27:22;;;;;;;6.18;1.38;;;14.90;84.60;;;;;;5070544;28;20476;-67
2022/09/16 04:29:48;;;;;;;9.18;1.65;;;15.00;84.60;;;;;;5070761;28;20570;-67
2022/09/16 04:32:23;;;;;;;8.07;1.65;;;15.00;84.50;;;;;;5074349;28;20123;-68
2022/09/16 04:34:49;;;;;;;9.57;1.50;;;14.90;85.20;;;;;;5075338;28;20463;-67
2022/09/16 04:37:15;;;;;;;7.25;1.67;;;14.90;84.60;;;;;;5066914;28;20050;-67
2022/09/16 04:39:40;;;;;;;3.03;0.80;;;14.90;84.70;;;;;;5071223;28;20467;-68
2022/09/16 04:42:06;;;;;;;9.98;1.27;;;14.90;84.70;;;;;;5072205;28;20028;-68
2022/09/16 04:44:32;;;;;;;8.93;1.45;;;14.90;84.60;;;;;;5074377;28;20032;-68
2022/09/16 04:46:57;;;;;;;9.23;1.38;;;14.80;84.90;;;;;;5060645;28;20036;-68
2022/09/16 04:49:23;;;;;;;3.40;1.02;;;14.80;84.60;;;;;;5061169;28;20032;-68
2022/09/16 04:51:50;;;;;;;1.15;0.47;;;14.80;84.50;;;;;;5070256;28;20044;-67
2022/09/16 04:54:16;;;;;;;3.45;1.02;;;14.80;84.60;;;;;;5069444;28;20125;-67
2022/09/16 04:56:42;;;;;;;8.05;1.90;;;14.70;84.50;;;;;;5070795;28;20044;-67
2022/09/16 04:59:09;;;;;;;13.98;2.00;;;14.80;85.00;;;;;;5071537;28;20101;-67
2022/09/16 05:01:37;;;;;;;12.23;1.67;;;14.80;85.30;;;;;;5074138;28;20036;-67
2022/09/16 05:04:05;;;;;;;15.68;2.05;;;14.80;85.50;;;;;;5061296;28;20429;-66
2022/09/16 05:06:33;;;;;;;12.02;1.60;;;14.80;85.70;;;;;;5072218;28;20032;-66
2022/09/16 05:09:00;;;;;;;8.68;1.80;;;14.80;85.90;;;;;;5072260;28;21563;-66
2022/09/16 05:11:32;;;;;;;6.10;1.40;;;14.90;86.10;;;;;;5072019;28;20032;-66
2022/09/16 05:14:03;;;;;;;14.23;1.85;;;14.90;85.90;;;;;;5069202;28;20085;-66
2022/09/16 05:16:29;;;;;;;11.35;2.45;;;14.90;85.80;;;;;;5067236;28;20426;-66
2022/09/16 05:18:56;;;;;;;6.75;1.33;;;14.90;85.70;;;;;;5066126;28;20032;-67
2022/09/16 05:21:24;;;;;;;4.32;1.15;;;14.90;85.00;;;;;;5069293;28;20127;-67
2022/09/16 05:23:50;;;;;;;6.22;1.05;;;14.90;84.70;;;;;;5069659;28;20041;-66
2022/09/16 05:26:23;;;;;;;6.65;0.88;;;14.90;84.50;;;;;;5069877;28;20146;-68
2022/09/16 05:28:52;;;;;;;6.43;1.27;;;14.80;84.40;;;;;;5068764;28;20047;-67
2022/09/16 05:31:20;;;;;;;10.80;1.67;;;14.80;85.00;;;;;;5069836;28;20032;-66
2022/09/16 05:33:52;;;;;;;5.30;1.10;;;14.80;85.20;;;;;;5071288;28;20039;-66
2022/09/16 05:36:18;;;;;;;10.00;1.65;;;14.80;85.20;;;;;;5070234;28;20430;-65
2022/09/16 05:38:44;;;;;;;12.23;1.70;;;14.80;85.60;;;;;;5070719;28;20044;-66
2022/09/16 05:41:10;;;;;;;11.93;2.03;;;14.80;85.70;;;;;;5071504;28;20468;-66
2022/09/16 05:43:36;;;;;;;13.27;2.10;;;14.80;86.00;;;;;;5069208;28;20083;-72
2022/09/16 05:46:04;;;;;;;10.40;3.17;;;14.90;86.20;;;;;;5077483;28;20056;-66
2022/09/16 05:48:30;;;;;;;9.02;1.50;;;14.90;86.70;;;;;;5071081;28;20068;-66
2022/09/16 05:50:59;;;;;;;9.05;1.58;;;14.90;86.80;;;;;;5065605;28;20100;-66
2022/09/16 05:53:27;;;;;;;8.93;2.35;;;14.90;87.30;;;;;;5052290;28;20099;-66
2022/09/16 05:55:58;;;;;;;11.65;2.22;;;15.00;87.80;;;;;;5071389;28;20043;-66
2022/09/16 05:58:25;;;;;;;16.67;2.10;;;15.00;88.10;;;;;;5066297;28;20040;-66
2022/09/16 06:00:51;;;;;;;14.48;2.17;;;15.00;87.90;;;;;;5069920;28;20530;-66
2022/09/16 06:03:17;;;;;;;9.13;2.20;;;15.00;88.10;;;;;;5069719;28;20051;-66
2022/09/16 06:05:43;;;;;;;10.13;1.40;;;15.10;87.90;;;;;;5068388;28;20472;-66
2022/09/16 06:08:08;;;;;;;12.50;1.70;;;15.10;87.20;;;;;;5067838;28;20139;-66
2022/09/16 06:10:38;;;;;;;6.10;1.45;;;15.10;86.40;;;;;;5054026;28;20415;-66
2022/09/16 06:13:03;;;;;;;7.82;1.63;;;15.10;86.00;;;;;;5066779;28;20041;-66
2022/09/16 06:15:30;;;;;;;10.63;1.42;;;15.00;85.30;;;;;;5083736;28;20357;-66
2022/09/16 06:17:55;;;;;;;6.07;0.70;;;15.00;85.00;;;;;;5072418;28;20029;-66
2022/09/16 06:20:21;;;;;;;11.50;1.17;;;14.90;84.70;;;;;;5062113;28;20033;-67
2022/09/16 06:22:47;;;;;;;8.65;1.70;;;14.90;84.70;;;;;;5068990;28;20043;-67
2022/09/16 06:25:12;;;;;;;1.50;0.65;;;14.80;85.10;;;;;;5072483;28;20029;-67
2022/09/16 06:27:38;;;;;;;10.52;1.10;;;14.80;85.10;;;;;;5065896;28;20032;-67
2022/09/16 06:30:04;;;;;;;1.20;0.55;;;14.80;85.50;;;;;;5063562;28;20036;-66
2022/09/16 06:32:31;;;;;;;1.23;0.68;;;14.70;85.80;;;;;;5066318;28;20021;-66
2022/09/16 06:34:56;;;;;;;2.95;0.55;;;14.50;86.00;;;;;;5071159;28;20496;-67
2022/09/16 06:37:25;;;;;;;11.88;1.48;;;14.60;86.40;;;;;;5070420;28;20047;-66
2022/09/16 06:39:51;;;;;;;3.85;1.42;;;14.50;86.60;;;;;;5071421;28;20079;-67
2022/09/16 06:42:16;;;;;;;10.63;1.83;;;14.50;86.70;;;;;;5064810;28;20061;-67
2022/09/16 06:44:43;;;;;;;11.45;2.20;;;14.50;87.10;;;;;;5051996;28;20625;-67
2022/09/16 06:47:08;;;;;;;7.75;1.60;;;14.50;87.00;;;;;;5074730;28;20111;-67
2022/09/16 06:49:34;;;;;;;12.05;1.80;;;14.50;86.60;;;;;;5062641;28;20515;-67
2022/09/16 06:52:00;;;;;;;11.00;1.60;;;14.60;86.30;;;;;;5067422;28;20401;-67
2022/09/16 06:54:26;;;;;;;12.45;1.52;;;14.60;85.90;;;;;;5071206;28;20480;-67
2022/09/16 06:56:51;;;;;;;10.57;1.42;;;14.70;85.70;;;;;;5070341;28;20047;-67
2022/09/16 06:59:17;;;;;;;14.98;2.28;;;14.70;85.50;;;;;;5062559;28;20021;-68
2022/09/16 07:01:43;;;;;;;1.67;0.60;;;14.80;85.80;;;;;;5067444;28;20028;-69
2022/09/16 07:04:11;;;;;;;7.15;1.20;;;14.80;85.60;;;;;;5070115;28;20046;-67
2022/09/16 07:06:36;;;;;;;19.33;1.77;;;14.90;85.60;;;;;;5066023;28;20090;-66
2022/09/16 07:09:02;;;;;;;10.07;1.42;;;14.90;85.60;;;;;;5068729;28;20463;-67
2022/09/16 07:11:28;;;;;;;10.85;1.55;;;15.00;85.60;;;;;;5064156;28;20083;-67
2022/09/16 07:13:54;;;;;;;13.05;1.38;;;15.00;85.30;;;;;;5065327;28;20032;-67
2022/09/16 07:16:22;;;;;;;10.90;1.63;;;15.10;85.40;;;;;;5065943;28;20487;-68
2022/09/16 07:18:53;;;;;;;15.43;2.03;;;15.10;85.50;;;;;;5061891;28;20032;-68
2022/09/16 07:21:20;;;;;;;12.10;1.65;;;15.10;85.20;;;;;;5056914;28;20036;-67
2022/09/16 07:23:47;;;;;;;12.95;1.33;;;15.20;85.20;;;;;;5071153;28;20036;-67
2022/09/16 07:26:21;;;;;;;6.03;1.38;;;15.20;85.20;;;;;;5065302;28;20040;-67
2022/09/16 07:28:49;;;;;;;6.40;1.27;;;15.20;84.90;;;;;;5063068;28;20185;-67
2022/09/16 07:31:24;;;;;;;7.30;1.65;;;15.20;84.30;;;;;;5058726;28;20111;-67
2022/09/16 07:33:51;;;;;;;11.85;1.95;;;15.20;84.20;;;;;;5071697;28;20374;-67
2022/09/16 07:36:24;;;;;;;14.07;1.92;;;15.20;84.10;;;;;;5062903;28;20139;-67
2022/09/16 07:38:51;;;;;;;12.98;1.70;;;15.20;84.40;;;;;;5061273;28;20060;-67
2022/09/16 07:41:20;;;;;;;6.95;1.15;;;15.30;84.30;;;;;;5056182;28;20029;-68
2022/09/16 07:43:46;;;;;;;11.90;1.85;;;15.20;84.30;;;;;;5061905;28;20131;-68
2022/09/16 07:46:15;;;;;;;22.02;2.03;;;15.30;84.70;;;;;;5083182;28;20028;-69
2022/09/16 07:48:41;;;;;;;5.22;1.63;;;15.30;84.80;;;;;;5055654;28;20036;-68
2022/09/16 07:51:10;;;;;;;8.45;1.75;;;15.30;84.90;;;;;;5058461;28;20025;-67
2022/09/16 07:53:37;;;;;;;11.73;1.55;;;15.40;84.70;;;;;;5066004;28;20094;-68
2022/09/16 07:56:05;;;;;;;14.05;2.60;;;15.30;84.30;;;;;;5063194;28;20391;-68
2022/09/16 07:58:31;;;;;;;10.45;1.95;;;15.40;84.70;;;;;;5058587;28;20047;-68
2022/09/16 08:00:57;;;;;;;8.10;1.67;;;15.40;84.10;;;;;;5069132;28;20028;-68
2022/09/16 08:03:23;;;;;;;9.38;1.40;;;15.40;83.80;;;;;;5055002;28;20049;-68
2022/09/16 08:05:48;;;;;;;11.77;1.52;;;15.50;83.60;;;;;;5050833;28;20032;-68
2022/09/16 08:08:14;;;;;;;6.78;1.05;;;15.50;83.50;;;;;;5052702;28;20033;-67
2022/09/16 08:10:40;;;;;;;8.88;1.23;;;15.50;83.30;;;;;;5063528;28;20060;-68
2022/09/16 08:13:07;;;;;;;7.88;1.60;;;15.50;83.10;;;;;;5066026;28;20029;-68
2022/09/16 08:15:33;;;;;;;8.88;1.73;;;15.60;82.90;;;;;;5078179;28;20456;-68
2022/09/16 08:17:59;;;;;;;11.50;1.92;;;15.60;82.90;;;;;;5071050;28;20029;-68
2022/09/16 08:20:25;;;;;;;6.85;1.85;;;15.60;82.60;;;;;;5070320;28;20521;-69
2022/09/16 08:22:52;;;;;;;6.45;1.40;;;15.60;82.40;;;;;;5057177;28;20044;-68
2022/09/16 08:25:17;;;;;;;10.43;1.38;;;15.60;82.60;;;;;;5072961;28;20036;-69
2022/09/16 08:27:43;;;;;;;4.43;1.10;;;15.60;82.80;;;;;;5071216;28;20542;-68
2022/09/16 08:30:10;;;;;;;8.35;1.58;;;15.70;82.60;;;;;;5061681;28;20041;-68
2022/09/16 08:32:35;;;;;;;8.65;1.63;;;15.60;81.80;;;;;;5060625;28;20139;-68
2022/09/16 08:35:01;;;;;;;5.55;1.08;;;15.60;82.00;;;;;;5063400;28;20119;-68
2022/09/16 08:37:27;;;;;;;6.80;1.65;;;15.70;82.20;;;;;;5066702;28;20071;-68
2022/09/16 08:39:52;;;;;;;13.18;1.52;;;15.80;82.00;;;;;;5059795;28;20057;-68
2022/09/16 08:42:46;;;;;;;10.45;2.03;;;15.80;82.20;;;;;;5065583;28;20488;-68
2022/09/16 08:45:19;;;;;;;3.28;0.90;;;15.90;82.40;;;;;;5084852;28;20040;-68
2022/09/16 08:48:01;;;;;;;8.23;1.48;;;16.00;82.50;;;;;;5069959;28;20467;-68
2022/09/16 08:50:32;;;;;;;4.63;1.25;;;16.00;82.60;;;;;;5070382;28;20056;-68
2022/09/16 08:53:01;;;;;;;13.02;1.95;;;16.00;82.60;;;;;;5067651;28;20072;-68
2022/09/16 08:55:39;;;;;;;4.95;1.45;;;16.00;82.60;;;;;;5069999;28;20036;-68
2022/09/16 08:58:15;;;;;;;6.15;1.00;;;16.00;82.70;;;;;;5071658;28;20039;-68
2022/09/16 09:00:43;;;;;;;12.85;2.22;;;16.10;82.60;;;;;;5068313;28;20119;-68
2022/09/16 09:03:32;;;;;;;11.32;1.38;;;16.10;82.80;;;;;;5054398;28;20477;-69
2022/09/16 09:06:00;;;;;;;4.68;0.82;;;16.10;83.60;;;;;;5053987;28;20082;-68
2022/09/16 09:08:36;;;;;;;4.53;0.65;;;16.10;83.40;;;;;;5064804;28;20032;-68
2022/09/16 09:11:29;;;;;;;6.32;0.85;;;16.10;83.10;;;;;;5060628;28;20032;-68
2022/09/16 09:14:13;;;;;;;0.98;0.40;;;16.10;83.30;;;;;;5062610;28;20107;-68
2022/09/16 09:16:38;;;;;;;;;;;16.20;83.70;;;;;;5066951;28;20094;-68
2022/09/16 09:19:30;;;;;;;9.25;1.48;;;16.10;83.80;;;;;;5059348;28;19920;-69
2022/09/16 09:22:07;;;;;;;10.43;1.67;;;16.00;84.00;;;;;;5059879;28;20078;-68
2022/09/16 09:25:01;;;;;;;9.10;1.45;;;16.00;84.30;;;;;;5064427;28;20484;-70
2022/09/16 09:27:34;;;;;;;;;;;16.10;84.40;;;;;;5058864;28;20048;-68
2022/09/16 09:30:13;;;;;;;11.55;1.98;;;16.10;84.50;;;;;;5062889;28;19935;-67
2022/09/16 09:33:08;;;;;;;6.97;1.38;;;16.10;84.60;;;;;;5059937;28;20024;-70
2022/09/16 09:36:02;;;;;;;4.10;1.02;;;16.10;84.50;;;;;;5069694;28;20032;-69
2022/09/16 09:39:23;;;;;;;4.47;1.00;;;16.20;84.10;;;;;;5069480;28;20075;-69
2022/09/16 09:41:54;;;;;;;3.15;0.70;;;16.20;84.30;;;;;;5001589;28;20044;-68
2022/09/16 09:44:28;;;;;;;9.90;1.65;;;16.20;83.70;;;;;;5077971;28;20119;-69
2022/09/16 09:46:59;;;;;;;4.13;1.10;;;16.30;83.60;;;;;;5066743;28;20028;-68
2022/09/16 09:49:49;;;;;;;7.15;1.08;;;16.40;83.50;;;;;;5067625;28;20465;-68
2022/09/16 09:52:27;;;;;;;9.43;1.52;;;16.40;83.80;;;;;;5068749;28;20043;-69
2022/09/16 09:54:55;;;;;;;0.30;0.30;;;16.40;83.80;;;;;;5064839;28;20033;-69
2022/09/16 09:57:36;;;;;;;3.78;0.85;;;16.40;84.00;;;;;;5071833;28;20029;-68
2022/09/16 10:00:17;;;;;;;8.55;1.70;;;16.40;84.30;;;;;;5064276;28;20025;-68
2022/09/16 10:02:44;;;;;;;11.27;2.22;;;16.30;84.60;;;;;;5065603;28;20044;-68
2022/09/16 10:05:24;;;;;;;9.55;1.23;;;16.40;85.10;;;;;;5061654;28;20024;-69
2022/09/16 10:07:56;;;;;;;9.70;1.52;;;16.40;84.40;;;;;;5067708;28;20029;-69
2022/09/16 10:10:24;;;;;;;6.95;1.60;;;16.40;83.90;;;;;;5062316;28;20036;-69
2022/09/16 10:12:50;;;;;;;10.13;1.33;;;16.60;84.00;;;;;;5065501;28;20086;-69
2022/09/16 10:15:30;;;;;;;6.10;0.77;;;16.60;84.10;;;;;;5067194;28;20064;-69
2022/09/16 10:17:59;;;;;;;2.17;0.70;;;16.60;83.70;;;;;;5068537;28;20036;-69
2022/09/16 10:20:33;;;;;;;7.63;1.50;;;16.60;83.50;;;;;;5060426;28;20400;-69
2022/09/16 10:23:12;;;;;;;10.30;1.52;;;16.60;83.60;;;;;;5052896;28;20037;-69
2022/09/16 10:25:38;;;;;;;5.90;1.45;;;16.70;83.60;;;;;;5055732;28;20483;-69
2022/09/16 10:28:19;;;;;;;9.55;1.45;;;16.70;83.70;;;;;;5056246;28;20021;-69
2022/09/16 10:30:54;;;;;;;9.93;1.23;;;16.80;83.30;;;;;;5068470;28;20090;-69
2022/09/16 10:33:28;;;;;;;10.98;2.08;;;16.90;83.60;;;;;;5059139;28;20028;-69
2022/09/16 10:35:59;;;;;;;10.25;1.73;;;16.90;84.00;;;;;;5063122;28;20075;-70
2022/09/16 10:38:34;;;;;;;5.28;1.35;;;17.00;83.20;;;;;;5064474;28;20438;-68
2022/09/16 10:41:15;;;;;;;12.45;1.83;;;17.00;82.70;;;;;;5063180;28;20506;-70
2022/09/16 10:44:17;;;;;;;10.05;2.10;;;17.10;81.50;;;;;;5064734;28;20040;-69
2022/09/16 10:46:51;;;;;;;3.95;1.02;;;17.20;81.60;;;;;;5050865;28;20037;-69
2022/09/16 10:49:21;;;;;;;5.57;1.60;;;17.20;81.30;;;;;;5067288;28;20020;-68
2022/09/16 10:51:47;;;;;;;8.77;1.45;;;17.20;81.50;;;;;;5068121;28;20039;-68
2022/09/16 10:54:27;;;;;;;9.85;2.05;;;17.20;82.30;;;;;;5051350;28;20096;-69
2022/09/16 10:56:53;;;;;;;12.60;1.65;;;17.30;82.10;;;;;;5060325;28;20082;-68
2022/09/16 10:59:18;;;;;;;12.05;2.13;;;17.30;82.40;;;;;;5061982;28;20044;-69
2022/09/16 11:01:47;;;;;;;21.25;2.05;;;17.30;82.30;;;;;;5065485;28;20116;-68
2022/09/16 11:04:31;;;;;;;11.27;1.73;;;17.40;82.20;;;;;;5053313;28;20483;-68
2022/09/16 11:07:24;;;;;;;6.38;1.33;;;17.40;82.10;;;;;;5068624;28;20483;-68
2022/09/16 11:09:52;;;;;;;12.45;1.67;;;17.50;81.60;;;;;;5067876;28;20032;-68
2022/09/16 11:12:27;;;;;;;6.65;0.82;;;17.50;82.00;;;;;;5060783;28;20072;-68
2022/09/16 11:15:21;;;;;;;14.20;2.28;;;17.50;81.80;;;;;;5060552;28;20032;-68
2022/09/16 11:18:01;;;;;;;5.63;1.55;;;17.60;81.90;;;;;;5068701;28;20116;-68
2022/09/16 11:20:51;;;;;;;12.30;2.63;;;17.60;82.50;;;;;;5059737;28;20123;-68
2022/09/16 11:23:38;;;;;;;20.00;3.20;;;17.60;81.10;;;;;;5064029;28;20481;-70
2022/09/16 11:26:27;;;;;;;13.57;2.50;;;17.60;80.80;;;;;;5064051;28;20036;-69
2022/09/16 11:28:56;;;;;;;17.35;3.22;;;17.70;80.90;;;;;;5053496;28;20029;-70
2022/09/16 11:31:42;;;;;;;6.40;1.48;;;17.70;81.00;;;;;;5061479;28;20423;-70
2022/09/16 11:34:55;;;;;;;9.40;1.95;;;17.70;81.20;;;;;;5070032;28;20020;-70
2022/09/16 11:37:34;;;;;;;9.45;1.67;;;17.80;81.40;;;;;;5002422;28;20041;-70
2022/09/16 11:40:17;;;;;;;14.23;2.72;;;17.80;81.90;;;;;;5055659;28;20086;-70
2022/09/16 11:43:08;;;;;;;16.60;2.60;;;17.80;82.30;;;;;;5070262;28;20036;-70
2022/09/16 11:46:12;;;;;;;5.65;1.35;;;17.90;82.00;;;;;;5072548;28;20407;-70
2022/09/16 11:49:02;;;;;;;13.63;1.88;;;17.90;82.60;;;;;;5061776;28;20032;-70
2022/09/16 11:51:53;;;;;;;4.43;1.52;;;17.90;82.20;;;;;;5058560;28;20040;-70
2022/09/16 11:54:22;;;;;;;8.85;1.35;;;17.90;82.30;;;;;;5068641;28;20031;-70
2022/09/16 11:57:02;;;;;;;14.60;2.33;;;17.90;82.20;;;;;;5069702;28;20025;-70
2022/09/16 11:59:35;;;;;;;14.23;2.13;;;17.90;81.10;;;;;;5071273;28;20485;-70
2022/09/16 12:02:19;;;;;;;2.55;1.08;;;17.90;81.70;;;;;;5068733;28;20025;-70
2022/09/16 12:04:52;;;;;;;8.05;2.60;;;17.90;81.90;;;;;;5057054;28;20040;-70
2022/09/16 12:07:49;;;;;;;9.65;2.17;;;18.00;82.00;;;;;;5065723;28;20606;-70
2022/09/16 12:10:41;;;;;;;10.85;2.22;;;18.00;82.20;;;;;;5055128;28;20140;-69
2022/09/16 12:13:18;;;;;;;15.77;2.20;;;18.10;81.50;;;;;;5058373;28;20029;-70
2022/09/16 12:15:47;;;;;;;8.73;1.73;;;18.10;81.10;;;;;;5072149;28;20036;-71
2022/09/16 12:18:25;;;;;;;16.85;2.70;;;18.10;81.00;;;;;;5058646;28;20400;-69
2022/09/16 12:21:24;;;;;;;10.68;1.70;;;18.10;80.00;;;;;;5066501;28;20116;-69
2022/09/16 12:24:13;;;;;;;4.88;1.80;;;18.20;79.90;;;;;;5067465;28;20585;-69
2022/09/16 12:26:44;;;;;;;6.88;2.30;;;18.20;80.40;;;;;;5061491;28;20083;-69
2022/09/16 12:29:17;;;;;;;6.28;1.48;;;18.20;80.60;;;;;;5070057;28;20112;-69
2022/09/16 12:31:59;;;;;;;7.03;1.57;;;18.30;80.60;;;;;;5073740;28;20048;-69
2022/09/16 12:34:33;;;;;;;10.38;1.85;;;18.30;81.20;;;;;;5069925;28;20076;-68
2022/09/16 12:37:23;;;;;;;9.05;2.05;;;18.40;81.10;;;;;;5063948;28;20552;-69
2022/09/16 12:39:49;;;;;;;9.85;1.90;;;18.30;81.20;;;;;;5070681;28;20325;-69
2022/09/16 12:42:47;;;;;;;15.40;2.40;;;18.30;81.60;;;;;;5069303;28;20546;-69
2022/09/16 12:45:31;;;;;;;5.82;1.98;;;18.40;82.00;;;;;;5070103;28;20039;-69
2022/09/16 12:48:36;;;;;;;5.10;1.38;;;18.30;81.70;;;;;;5058349;28;20865;-69
2022/09/16 12:51:28;;;;;;;5.28;1.17;;;18.40;81.80;;;;;;5053709;28;20063;-69
2022/09/16 12:54:36;;;;;;;8.77;1.35;;;18.30;81.60;;;;;;5063158;28;20210;-69
2022/09/16 12:57:25;;;;;;;9.48;1.85;;;18.30;81.70;;;;;;5034038;28;20045;-69
2022/09/16 13:00:21;;;;;;;5.82;1.50;;;18.40;81.00;;;;;;5066520;28;20058;-69
2022/09/16 13:03:03;;;;;;;5.80;1.20;;;18.40;80.20;;;;;;5072327;28;20024;-69
2022/09/16 13:05:37;;;;;;;4.90;0.98;;;18.40;81.10;;;;;;5069897;28;20472;-70
2022/09/16 13:08:07;;;;;;;4.63;1.08;;;18.40;81.50;;;;;;5067267;28;20025;-70
2022/09/16 13:10:38;;;;;;;6.75;1.10;;;18.40;81.80;;;;;;5068542;28;20044;-70
2022/09/16 13:13:08;;;;;;;1.83;0.70;;;18.40;81.70;;;;;;5067608;28;20102;-70
2022/09/16 13:15:37;;;;;;;9.48;2.22;;;18.40;82.50;;;;;;5061520;28;20020;-69
2022/09/16 13:18:09;;;;;;;8.25;1.00;;;18.40;82.70;;;;;;5071406;28;20158;-69